Time;durP1;ratioP1;P1;durP2;ratioP2;P2;SDS_P1;SDS_P2;PMS_P1;PMS_P2;Temp;Humidity;BMP_temperature;BMP_pressure;BME280_temperature;BME280_humidity;BME280_pressure;Samples;Min_cycle;Max_cycle;Signal;HPM_P1;HPM_P2
2023/03/08 00:01:23;;;;;;;19.48;8.27;;;;;;;-4.66;71.38;98714.34;5054805;28;20052;-49
2023/03/08 00:03:56;;;;;;;21.60;7.95;;;;;;;-4.64;71.42;98715.13;5054528;28;20040;-54
2023/03/08 00:06:23;;;;;;;22.17;7.82;;;;;;;-4.63;71.03;98718.56;5054835;28;20136;-54
2023/03/08 00:08:48;;;;;;;16.88;8.23;;;;;;;-4.64;71.33;98724.72;5054940;28;20025;-51
2023/03/08 00:11:14;;;;;;;18.70;7.90;;;;;;;-4.67;71.20;98717.00;5055166;28;20094;-59
2023/03/08 00:13:40;;;;;;;15.13;8.13;;;;;;;-4.66;71.33;98718.69;5050061;28;20017;-50
2023/03/08 00:16:08;;;;;;;20.27;8.75;;;;;;;-4.67;71.00;98717.84;5034819;28;20424;-54
2023/03/08 00:18:35;;;;;;;16.77;8.48;;;;;;;-4.91;71.74;98677.78;5035221;28;20098;-49
2023/03/08 00:21:12;;;;;;;18.75;8.60;;;;;;;-4.69;71.09;98726.63;5033660;28;20033;-54
2023/03/08 00:23:37;;;;;;;21.67;8.80;;;;;;;-4.72;71.10;98724.97;5034744;28;20037;-49
2023/03/08 00:26:03;;;;;;;16.63;8.15;;;;;;;-4.72;71.31;98719.75;5034809;28;20048;-47
2023/03/08 00:28:29;;;;;;;18.90;8.10;;;;;;;-4.73;71.39;98727.66;5034325;28;20040;-49
2023/03/08 00:30:57;;;;;;;17.95;9.00;;;;;;;-4.74;71.20;98723.34;5034263;28;20033;-49
2023/03/08 00:33:22;;;;;;;17.30;8.13;;;;;;;-4.81;70.96;98707.91;5034788;28;20033;-49
2023/03/08 00:36:02;;;;;;;20.40;8.30;;;;;;;-4.77;71.50;98719.94;5033687;28;20042;-62
2023/03/08 00:38:30;;;;;;;16.05;8.35;;;;;;;-4.78;71.32;98723.47;5037778;28;20029;-52
2023/03/08 00:40:56;;;;;;;21.33;8.68;;;;;;;-4.95;71.10;98700.53;5054314;28;20041;-49
2023/03/08 00:43:21;;;;;;;18.80;8.57;;;;;;;-4.82;71.06;98723.63;5054785;28;20045;-50
2023/03/08 00:45:47;;;;;;;18.45;8.88;;;;;;;-4.84;71.72;98726.25;5054198;28;20029;-50
2023/03/08 00:48:12;;;;;;;18.75;8.90;;;;;;;-4.88;71.75;98714.22;5053819;28;20025;-50
2023/03/08 00:50:38;;;;;;;14.93;8.18;;;;;;;-4.83;71.28;98733.19;5054584;28;20140;-50
2023/03/08 00:53:03;;;;;;;18.60;8.95;;;;;;;-4.82;71.27;98729.69;5054273;28;20440;-49
2023/03/08 00:55:29;;;;;;;23.38;8.70;;;;;;;-4.84;71.76;98731.50;5052885;28;20104;-50
2023/03/08 00:57:54;;;;;;;20.17;8.57;;;;;;;-4.82;71.62;98723.63;5053764;28;20381;-49
2023/03/08 01:00:20;;;;;;;21.08;8.65;;;;;;;-4.84;71.45;98726.25;5054182;28;20029;-58
2023/03/08 01:02:45;;;;;;;19.38;8.38;;;;;;;-4.85;71.18;98724.56;5053328;28;20075;-47
2023/03/08 01:05:11;;;;;;;18.05;8.75;;;;;;;-4.87;71.31;98717.72;5033392;28;20060;-51
2023/03/08 01:07:36;;;;;;;14.02;8.73;;;;;;;-5.08;71.35;98689.66;5033987;28;20109;-50
2023/03/08 01:10:04;;;;;;;15.82;8.73;;;;;;;-4.83;71.84;98725.34;5033921;28;20430;-50
2023/03/08 01:12:32;;;;;;;19.17;9.40;;;;;;;-4.86;71.56;98720.25;5033856;28;20487;-53
2023/03/08 01:14:57;;;;;;;19.90;9.77;;;;;;;-4.80;71.76;98727.88;5033279;28;20057;-50
2023/03/08 01:17:23;;;;;;;16.95;9.73;;;;;;;-4.76;72.03;98731.22;5033368;28;20080;-50
2023/03/08 01:19:48;;;;;;;21.98;9.90;;;;;;;-4.76;71.54;98721.66;5053571;28;20098;-47
2023/03/08 01:22:13;;;;;;;21.30;11.30;;;;;;;-4.74;71.65;98724.19;5053813;28;20032;-50
2023/03/08 01:24:43;;;;;;;20.45;11.57;;;;;;;-4.69;72.50;98718.81;5053110;28;20409;-50
2023/03/08 01:27:09;;;;;;;25.45;12.93;;;;;;;-4.63;72.45;98718.56;5053266;28;20032;-52
2023/03/08 01:29:34;;;;;;;25.20;13.15;;;;;;;-4.63;72.13;98700.28;5035596;28;20410;-48
2023/03/08 01:32:00;;;;;;;24.08;13.15;;;;;;;-4.59;72.09;98696.66;5033540;28;20368;-50
2023/03/08 01:34:25;;;;;;;23.02;13.73;;;;;;;-4.54;72.27;98701.72;5033351;28;20021;-50
2023/03/08 01:36:51;;;;;;;23.70;14.93;;;;;;;-4.53;72.12;98703.41;5033437;28;20033;-59
2023/03/08 01:39:16;;;;;;;22.48;12.82;;;;;;;-4.57;72.09;98694.00;5033395;28;20470;-50
2023/03/08 01:41:42;;;;;;;23.35;12.07;;;;;;;-4.54;72.13;98705.19;5033545;28;20107;-52
2023/03/08 01:44:14;;;;;;;23.77;13.63;;;;;;;-4.56;72.14;98686.13;5032885;28;20108;-48
2023/03/08 01:46:40;;;;;;;23.25;12.50;;;;;;;-4.54;72.11;98702.59;5033082;28;20033;-50
2023/03/08 01:49:17;;;;;;;19.90;11.35;;;;;;;-4.52;72.56;98700.75;5032887;28;20056;-49
2023/03/08 01:51:43;;;;;;;18.45;11.27;;;;;;;-4.51;72.03;98696.38;5032889;28;20047;-50
2023/03/08 01:54:16;;;;;;;21.08;11.82;;;;;;;-4.52;71.86;98699.91;5048596;28;20436;-52
2023/03/08 01:56:44;;;;;;;24.55;11.57;;;;;;;-4.51;72.64;98704.22;5052707;28;20090;-51
2023/03/08 01:59:10;;;;;;;18.80;11.32;;;;;;;-4.58;72.29;98700.13;5052651;28;20047;-48
2023/03/08 02:01:36;;;;;;;18.80;11.88;;;;;;;-4.52;72.19;98711.22;5031595;28;20353;-53
2023/03/08 02:04:02;;;;;;;22.45;11.68;;;;;;;-4.57;72.78;98707.94;5032635;28;20036;-52
2023/03/08 02:06:28;;;;;;;21.10;11.55;;;;;;;-4.53;72.14;98706.91;5040409;28;20048;-50
2023/03/08 02:08:54;;;;;;;26.75;11.70;;;;;;;-4.53;72.35;98714.72;5052547;28;20072;-57
2023/03/08 02:11:21;;;;;;;20.77;11.38;;;;;;;-4.54;72.23;98710.41;5052694;28;20025;-51
2023/03/08 02:13:47;;;;;;;19.55;11.57;;;;;;;-4.57;71.84;98718.38;5053201;28;20029;-50
2023/03/08 02:16:15;;;;;;;22.98;11.68;;;;;;;-4.58;72.28;98710.59;5033128;28;20056;-49
2023/03/08 02:18:51;;;;;;;22.88;11.88;;;;;;;-4.56;72.83;98707.00;5033008;28;20200;-55
2023/03/08 02:21:16;;;;;;;21.35;11.20;;;;;;;-4.55;72.16;98718.31;5033092;28;20036;-53
2023/03/08 02:23:41;;;;;;;22.92;11.70;;;;;;;-4.55;73.11;98716.56;5032237;28;20038;-56
2023/03/08 02:26:07;;;;;;;20.30;10.88;;;;;;;-4.63;73.06;98687.22;5048333;28;20040;-47
2023/03/08 02:28:33;;;;;;;19.33;11.40;;;;;;;-4.46;72.80;98715.38;5052481;28;20025;-54
2023/03/08 02:30:59;;;;;;;17.35;11.13;;;;;;;-4.42;73.04;98718.69;5052149;28;20025;-52
2023/03/08 02:33:24;;;;;;;23.98;11.70;;;;;;;-4.43;72.36;98709.16;5052173;28;20051;-64
2023/03/08 02:35:50;;;;;;;19.80;11.68;;;;;;;-4.70;72.73;98670.09;5051501;28;20036;-49
2023/03/08 02:38:18;;;;;;;23.67;11.75;;;;;;;-4.41;73.05;98707.34;5051304;28;20036;-50
2023/03/08 02:40:44;;;;;;;21.00;11.23;;;;;;;-4.45;72.88;98701.41;5035234;28;20049;-55
2023/03/08 02:43:10;;;;;;;21.67;10.32;;;;;;;-4.47;72.79;98697.97;5031938;28;20056;-53
2023/03/08 02:45:36;;;;;;;25.02;11.25;;;;;;;-4.46;72.67;98689.25;5032439;28;20065;-57
2023/03/08 02:48:03;;;;;;;22.00;11.23;;;;;;;-4.54;72.72;98681.69;5032429;28;20033;-59
2023/03/08 02:50:30;;;;;;;19.95;11.43;;;;;;;-4.40;72.57;98709.03;5031962;28;20112;-54
2023/03/08 02:52:56;;;;;;;20.02;11.30;;;;;;;-4.62;72.78;98673.25;5031963;28;20036;-60
2023/03/08 02:55:21;;;;;;;19.60;11.27;;;;;;;-4.39;72.58;98722.06;5032479;28;20030;-50
2023/03/08 02:57:47;;;;;;;21.17;11.13;;;;;;;-4.38;72.58;98715.06;5032182;28;20043;-51
2023/03/08 03:00:12;;;;;;;22.63;11.48;;;;;;;-4.35;72.96;98714.94;5031895;28;20372;-55
2023/03/08 03:02:38;;;;;;;20.67;11.32;;;;;;;-4.34;72.36;98708.81;5031880;28;20444;-51
2023/03/08 03:05:06;;;;;;;22.15;11.77;;;;;;;-4.36;72.37;98710.63;5044554;28;20029;-54
2023/03/08 03:07:35;;;;;;;18.42;10.20;;;;;;;-4.32;72.62;98715.69;5052222;28;20029;-51
2023/03/08 03:10:01;;;;;;;21.67;11.35;;;;;;;-4.34;72.67;98714.03;5051887;28;20064;-53
2023/03/08 03:12:26;;;;;;;22.15;11.18;;;;;;;-4.33;72.26;98710.53;5051639;28;20060;-65
2023/03/08 03:14:52;;;;;;;21.10;10.80;;;;;;;-4.42;72.26;98706.50;5052125;28;20448;-49
2023/03/08 03:17:17;;;;;;;18.60;10.50;;;;;;;-4.34;72.02;98716.63;5052144;28;20040;-55
2023/03/08 03:19:43;;;;;;;21.27;11.45;;;;;;;-4.36;72.59;98710.63;5051747;28;20423;-51
2023/03/08 03:22:08;;;;;;;21.13;10.25;;;;;;;-4.37;72.39;98708.91;5051812;28;20033;-52
2023/03/08 03:24:34;;;;;;;16.20;9.98;;;;;;;-4.41;72.20;98704.72;5052238;28;20033;-49
2023/03/08 03:26:59;;;;;;;23.42;10.68;;;;;;;-4.41;72.16;98704.72;5052173;28;20029;-54
2023/03/08 03:29:24;;;;;;;22.35;10.68;;;;;;;-4.33;72.26;98718.38;5042149;28;20033;-51
2023/03/08 03:31:50;;;;;;;24.90;11.05;;;;;;;-4.34;72.34;98716.63;5031465;28;20379;-53
2023/03/08 03:34:15;;;;;;;21.73;11.05;;;;;;;-4.31;72.19;98716.56;5031794;28;20429;-52
2023/03/08 03:36:41;;;;;;;26.42;11.63;;;;;;;-4.35;71.80;98717.56;5031940;28;20369;-49
2023/03/08 03:39:06;;;;;;;24.98;11.48;;;;;;;-4.39;71.51;98711.59;5031257;28;20060;-48
2023/03/08 03:41:32;;;;;;;28.05;12.55;;;;;;;-4.40;72.09;98709.03;5031472;28;20057;-49
2023/03/08 03:43:57;;;;;;;21.92;11.43;;;;;;;-4.44;71.66;98717.91;5031602;28;20104;-49
2023/03/08 03:46:24;;;;;;;22.10;12.23;;;;;;;-4.43;71.97;98719.59;5030589;28;20038;-48
2023/03/08 03:48:50;;;;;;;25.27;12.60;;;;;;;-4.72;71.94;98677.97;5032676;28;20064;-49
2023/03/08 03:51:18;;;;;;;27.95;12.90;;;;;;;-4.60;72.10;98708.00;5034999;28;20100;-48
2023/03/08 03:53:44;;;;;;;24.13;12.55;;;;;;;-4.48;71.58;98728.47;5040022;28;20458;-49
2023/03/08 03:56:24;;;;;;;25.80;12.73;;;;;;;-4.50;71.52;98732.91;5055068;28;20033;-52
2023/03/08 03:58:51;;;;;;;24.42;12.65;;;;;;;-4.47;70.70;98724.94;5054829;28;20029;-48
2023/03/08 04:01:19;;;;;;;23.40;12.07;;;;;;;-4.50;71.03;98727.69;5055209;28;20109;-54
2023/03/08 04:03:45;;;;;;;28.08;14.55;;;;;;;-4.50;69.95;98725.06;5054698;28;20028;-50
2023/03/08 04:06:13;;;;;;;26.95;13.98;;;;;;;-4.56;70.25;98716.59;5054851;28;20036;-50
2023/03/08 04:08:41;;;;;;;28.40;14.65;;;;;;;-4.47;70.10;98717.13;5048873;28;20041;-51
2023/03/08 04:11:10;;;;;;;30.63;15.20;;;;;;;-4.34;70.22;98737.53;5034714;28;20037;-53
2023/03/08 04:13:36;;;;;;;33.60;14.88;;;;;;;-4.26;69.60;98729.44;5034779;28;20409;-50
2023/03/08 04:16:19;;;;;;;32.85;15.40;;;;;;;-4.08;69.38;98738.34;5035013;28;20033;-52
2023/03/08 04:18:45;;;;;;;29.02;14.85;;;;;;;-4.08;68.82;98740.97;5040761;28;20041;-47
2023/03/08 04:21:11;;;;;;;35.85;15.93;;;;;;;-4.01;68.11;98736.34;5053599;28;20064;-51
2023/03/08 04:23:37;;;;;;;40.55;16.92;;;;;;;-3.99;69.06;98744.97;5054882;28;20032;-49
2023/03/08 04:26:04;;;;;;;37.42;16.58;;;;;;;-3.96;68.47;98744.88;5054509;28;20417;-52
2023/03/08 04:28:30;;;;;;;38.08;16.75;;;;;;;-3.91;68.28;98754.22;5054629;28;20028;-50
2023/03/08 04:30:56;;;;;;;36.53;16.30;;;;;;;-3.85;68.05;98754.94;5054244;28;20375;-56
2023/03/08 04:33:22;;;;;;;37.22;16.48;;;;;;;-3.79;68.23;98752.06;5049299;28;20092;-50
2023/03/08 04:35:47;;;;;;;37.80;16.20;;;;;;;-3.82;68.47;98762.66;5034308;28;20041;-52
2023/03/08 04:38:13;;;;;;;47.88;16.85;;;;;;;-4.17;67.65;98700.34;5033318;28;20037;-54
2023/03/08 04:43:22;;;;;;;39.00;16.88;;;;;;;-3.73;68.37;98762.28;5039559;28;20040;-51
2023/03/08 04:45:48;;;;;;;33.88;16.42;;;;;;;-3.71;68.30;98775.31;5053863;28;20458;-50
2023/03/08 04:48:13;;;;;;;39.72;16.48;;;;;;;-3.67;68.56;98782.13;5054052;28;20414;-52
2023/03/08 04:50:39;;;;;;;38.78;16.75;;;;;;;-3.62;68.16;98770.56;5054369;28;20440;-53
2023/03/08 04:53:05;;;;;;;38.63;17.02;;;;;;;-3.59;68.25;98776.59;5054147;28;20036;-52
2023/03/08 04:55:30;;;;;;;39.78;17.65;;;;;;;-3.58;68.54;98767.81;5053197;28;20051;-51
2023/03/08 04:57:56;;;;;;;38.10;16.90;;;;;;;-3.53;68.76;98768.50;5053706;28;20085;-53
2023/03/08 05:00:22;;;;;;;46.20;17.88;;;;;;;-3.44;68.71;98773.34;5053678;28;20063;-49
2023/03/08 05:02:47;;;;;;;44.40;17.40;;;;;;;-3.39;68.01;98776.63;5053507;28;20040;-47
2023/03/08 05:05:13;;;;;;;37.95;17.58;;;;;;;-3.43;67.46;98782.91;5053886;28;20410;-48
2023/03/08 05:07:38;;;;;;;44.10;18.45;;;;;;;-3.49;67.77;98781.41;5051009;28;20511;-49
2023/03/08 05:10:04;;;;;;;44.90;19.08;;;;;;;-3.51;67.27;98774.50;5034084;28;20034;-61
2023/03/08 05:12:29;;;;;;;47.55;18.92;;;;;;;-3.53;68.10;98771.94;5034464;28;20037;-49
2023/03/08 05:14:55;;;;;;;47.35;19.88;;;;;;;-3.56;68.01;98779.09;5033655;28;20033;-49
2023/03/08 05:17:20;;;;;;;42.88;19.30;;;;;;;-3.52;67.55;98786.72;5033250;28;20037;-48
2023/03/08 05:19:46;;;;;;;46.38;17.90;;;;;;;-3.48;67.79;98782.22;5033758;28;20118;-49
2023/03/08 05:22:11;;;;;;;42.55;17.63;;;;;;;-3.44;67.17;98780.34;5033774;28;20463;-50
2023/03/08 05:24:39;;;;;;;42.33;17.50;;;;;;;-3.49;66.95;98780.53;5032346;28;20458;-53
2023/03/08 05:27:06;;;;;;;43.28;18.65;;;;;;;-3.50;66.59;98791.91;5033126;28;20052;-53
2023/03/08 05:29:33;;;;;;;40.05;17.73;;;;;;;-3.56;66.68;98772.06;5033838;28;20041;-49
2023/03/08 05:32:01;;;;;;;35.28;16.08;;;;;;;-3.61;66.83;98776.63;5032733;28;20033;-55
2023/03/08 05:34:27;;;;;;;39.00;16.05;;;;;;;-3.66;66.95;98763.72;5051102;28;20356;-57
2023/03/08 05:36:53;;;;;;;36.38;17.10;;;;;;;-3.72;67.42;98771.81;5033231;28;20036;-53
2023/03/08 05:39:18;;;;;;;35.60;16.50;;;;;;;-3.66;66.56;98775.97;5032077;28;20138;-48
2023/03/08 05:41:44;;;;;;;39.47;18.15;;;;;;;-3.63;67.14;98774.06;5032834;28;20064;-49
2023/03/08 05:44:10;;;;;;;46.75;17.92;;;;;;;-3.59;67.10;98781.81;5032268;28;20046;-47
2023/03/08 05:46:38;;;;;;;38.03;18.55;;;;;;;-3.53;67.24;98784.19;5033125;28;20056;-57
2023/03/08 05:49:05;;;;;;;39.30;17.52;;;;;;;-3.47;66.59;98781.31;5052301;28;20035;-58
2023/03/08 05:51:30;;;;;;;37.80;17.25;;;;;;;-3.40;66.72;98774.91;5016281;28;20116;-51
2023/03/08 05:53:56;;;;;;;39.90;18.17;;;;;;;-3.38;65.77;98773.09;5032856;28;20117;-54
2023/03/08 05:56:22;;;;;;;40.78;18.27;;;;;;;-3.39;66.43;98771.38;5033265;28;20057;-53
2023/03/08 05:58:49;;;;;;;36.85;18.05;;;;;;;-3.30;67.06;98769.31;5048570;28;20028;-54
2023/03/08 06:01:20;;;;;;;38.13;18.77;;;;;;;-3.15;66.68;98773.91;5051220;28;20043;-52
2023/03/08 06:03:48;;;;;;;40.03;18.42;;;;;;;-3.00;66.78;98754.13;5052786;28;20033;-54
2023/03/08 06:06:14;;;;;;;39.30;20.38;;;;;;;-2.77;66.04;98768.84;5052613;28;20036;-54
2023/03/08 06:08:40;;;;;;;42.38;19.48;;;;;;;-2.64;65.62;98771.78;5052390;28;20032;-51
2023/03/08 06:11:06;;;;;;;40.53;19.55;;;;;;;-2.46;64.89;98764.03;5052265;28;20079;-48
2023/03/08 06:13:32;;;;;;;39.42;19.23;;;;;;;-2.39;64.90;98751.53;5052825;28;20025;-52
2023/03/08 06:15:59;;;;;;;38.30;18.17;;;;;;;-2.32;64.48;98758.19;5052313;28;20100;-51
2023/03/08 06:18:26;;;;;;;36.70;17.60;;;;;;;-2.23;64.41;98768.25;5053008;28;20063;-53
2023/03/08 06:20:59;;;;;;;36.08;17.58;;;;;;;-2.11;64.00;98760.75;5033306;28;20112;-53
2023/03/08 06:23:26;;;;;;;34.92;17.35;;;;;;;-2.15;63.53;98759.19;5046652;28;20128;-54
2023/03/08 06:25:51;;;;;;;34.08;17.05;;;;;;;-2.11;63.47;98769.47;5052544;28;20025;-49
2023/03/08 06:28:17;;;;;;;29.00;16.55;;;;;;;-2.16;63.65;98768.81;5052800;28;20463;-58
2023/03/08 06:30:43;;;;;;;30.17;16.15;;;;;;;-2.06;63.57;98756.13;5052439;28;20119;-55
2023/03/08 06:33:08;;;;;;;36.15;17.65;;;;;;;-1.98;63.44;98751.38;5047041;28;20489;-55
2023/03/08 06:35:34;;;;;;;31.42;16.70;;;;;;;-2.11;63.28;98730.13;5042469;28;20044;-57
2023/03/08 06:37:59;;;;;;;27.15;15.15;;;;;;;-1.94;63.36;98731.94;5043117;28;20029;-53
2023/03/08 06:40:25;;;;;;;28.85;15.68;;;;;;;-1.83;63.69;98735.84;5041458;28;20065;-51
2023/03/08 06:42:51;;;;;;;24.42;13.48;;;;;;;-1.66;63.12;98740.28;5038781;28;20387;-50
2023/03/08 06:45:16;;;;;;;19.30;10.60;;;;;;;-1.43;61.99;98722.59;5032566;28;20164;-52
2023/03/08 06:47:42;;;;;;;19.48;10.90;;;;;;;-1.34;61.49;98720.34;5032666;28;20460;-51
2023/03/08 06:50:08;;;;;;;19.33;10.43;;;;;;;-1.31;61.51;98701.81;5031525;28;20107;-53
2023/03/08 06:52:36;;;;;;;18.13;10.43;;;;;;;-1.18;60.97;98711.72;5032134;28;20040;-52
2023/03/08 06:55:05;;;;;;;18.05;10.65;;;;;;;-1.03;60.32;98687.28;5043603;28;20071;-52
2023/03/08 06:57:31;;;;;;;19.15;10.60;;;;;;;-0.80;59.68;98681.78;5052674;28;20494;-55
2023/03/08 06:59:56;;;;;;;16.52;9.68;;;;;;;-0.55;59.64;98686.56;5052297;28;20029;-52
2023/03/08 07:02:22;;;;;;;18.45;9.50;;;;;;;-0.17;57.94;98694.19;5041287;28;20040;-52
2023/03/08 07:04:47;;;;;;;18.77;9.73;;;;;;;0.09;56.97;98675.25;5032453;28;20507;-54
2023/03/08 07:07:13;;;;;;;15.90;8.98;;;;;;;0.27;56.55;98673.38;5032572;28;20026;-50
2023/03/08 07:09:39;;;;;;;17.58;9.30;;;;;;;0.46;55.75;98677.56;5032674;28;20087;-54
2023/03/08 07:12:05;;;;;;;14.55;9.50;;;;;;;0.55;55.36;98662.09;5039017;28;20108;-54
2023/03/08 07:14:30;;;;;;;15.43;9.73;;;;;;;0.90;55.00;98650.41;5052033;28;20108;-54
2023/03/08 07:16:56;;;;;;;14.68;9.13;;;;;;;1.49;53.91;98652.16;5052392;28;20108;-50
2023/03/08 07:19:21;;;;;;;16.52;10.48;;;;;;;1.97;51.98;98690.53;5051092;28;20140;-55
2023/03/08 07:21:46;;;;;;;17.38;10.27;;;;;;;1.97;50.92;98653.59;5051692;28;20060;-50
2023/03/08 07:24:12;;;;;;;19.80;11.63;;;;;;;1.69;51.32;98648.25;5036889;28;20025;-53
2023/03/08 07:26:37;;;;;;;19.48;11.82;;;;;;;1.34;53.24;98639.91;5036716;28;20030;-51
2023/03/08 07:29:03;;;;;;;18.83;11.45;;;;;;;1.38;52.81;98644.03;5035391;28;20439;-49
2023/03/08 07:31:29;;;;;;;22.67;12.10;;;;;;;1.58;52.79;98641.00;5034822;28;20033;-52
2023/03/08 07:33:55;;;;;;;19.63;11.63;;;;;;;1.92;52.31;98643.31;5035528;28;20029;-49
2023/03/08 07:36:20;;;;;;;17.52;11.48;;;;;;;2.02;51.45;98643.56;5043321;28;20032;-53
2023/03/08 07:38:46;;;;;;;25.55;13.35;;;;;;;2.30;50.72;98657.63;5055428;28;20146;-50
2023/03/08 07:41:12;;;;;;;20.73;12.13;;;;;;;2.33;49.87;98665.34;5055196;28;20132;-57
2023/03/08 07:43:38;;;;;;;18.90;12.27;;;;;;;2.37;50.11;98666.84;5055560;28;20041;-52
2023/03/08 07:46:04;;;;;;;19.52;12.40;;;;;;;2.26;49.85;98635.84;5055424;28;20340;-50
2023/03/08 07:48:30;;;;;;;23.42;14.10;;;;;;;1.95;50.65;98622.00;5055003;28;20066;-55
2023/03/08 07:51:08;;;;;;;19.60;12.40;;;;;;;3.33;48.61;98672.81;5053434;28;20029;-50
2023/03/08 07:53:35;;;;;;;20.55;12.40;;;;;;;4.19;44.78;98654.41;5055364;28;20037;-50
2023/03/08 07:56:02;;;;;;;19.73;13.10;;;;;;;5.26;43.36;98641.13;5054113;28;20028;-54
2023/03/08 07:58:27;;;;;;;17.85;12.65;;;;;;;5.98;40.83;98647.00;5054012;28;20353;-54
2023/03/08 08:00:53;;;;;;;19.77;12.63;;;;;;;5.47;41.05;98603.25;5040728;28;20560;-51
2023/03/08 08:03:19;;;;;;;23.50;11.73;;;;;;;4.77;42.92;98610.41;5035253;28;20037;-51
2023/03/08 08:05:45;;;;;;;17.10;11.52;;;;;;;4.23;44.24;98639.13;5044297;28;20041;-54
2023/03/08 08:08:12;;;;;;;24.95;14.10;;;;;;;3.78;45.33;98624.66;5055467;28;20044;-54
2023/03/08 08:10:39;;;;;;;19.75;13.98;;;;;;;3.53;46.24;98628.25;5055156;28;20025;-53
2023/03/08 08:13:04;;;;;;;20.80;12.63;;;;;;;3.33;45.86;98596.09;5054615;28;20060;-55
2023/03/08 08:15:30;;;;;;;18.95;12.10;;;;;;;3.08;47.33;98600.44;5048104;28;20053;-53
2023/03/08 08:17:55;;;;;;;20.20;13.18;;;;;;;2.94;46.90;98617.28;5053458;28;20028;-56
2023/03/08 08:20:21;;;;;;;21.30;12.63;;;;;;;2.57;47.76;98601.25;5054748;28;20048;-50
2023/03/08 08:22:48;;;;;;;17.73;11.23;;;;;;;2.35;48.49;98601.84;5055127;28;20037;-53
2023/03/08 08:25:14;;;;;;;17.30;10.32;;;;;;;2.27;48.34;98599.72;5053010;28;20080;-60
2023/03/08 08:27:39;;;;;;;17.00;10.00;;;;;;;2.41;48.47;98623.44;5054135;28;20063;-52
2023/03/08 08:30:06;;;;;;;13.95;8.18;;;;;;;2.65;48.64;98609.53;5052616;28;20044;-56
2023/03/08 08:32:35;;;;;;;14.38;8.13;;;;;;;2.61;47.85;98623.06;5054767;28;20036;-50
2023/03/08 08:35:00;;;;;;;13.70;8.82;;;;;;;2.55;46.81;98634.88;5053775;28;20056;-49
2023/03/08 08:37:26;;;;;;;16.10;9.30;;;;;;;2.28;48.32;98630.47;5054354;28;20075;-53
2023/03/08 08:39:51;;;;;;;14.38;8.90;;;;;;;2.00;48.53;98619.06;5054245;28;20400;-51
2023/03/08 08:42:17;;;;;;;13.13;9.15;;;;;;;1.84;49.10;98620.03;5054535;28;20137;-52
2023/03/08 08:44:42;;;;;;;14.32;8.55;;;;;;;1.92;48.35;98614.28;5053400;28;20087;-54
2023/03/08 08:47:08;;;;;;;14.40;9.55;;;;;;;1.83;49.06;98618.34;5034261;28;20076;-50
2023/03/08 08:49:34;;;;;;;11.30;7.93;;;;;;;1.84;48.98;98612.13;5034219;28;20036;-50
2023/03/08 08:51:59;;;;;;;11.85;8.77;;;;;;;1.77;49.27;98617.88;5033859;28;20033;-49
2023/03/08 08:54:25;;;;;;;8.38;5.28;;;;;;;2.01;48.49;98610.19;5034325;28;20091;-54
2023/03/08 08:56:50;;;;;;;14.15;8.70;;;;;;;1.77;49.40;98602.91;5035009;28;20095;-52
2023/03/08 08:59:16;;;;;;;11.32;7.82;;;;;;;1.86;48.96;98612.88;5034167;28;20041;-57
2023/03/08 09:01:45;;;;;;;14.48;9.35;;;;;;;2.05;48.94;98587.06;5034981;28;20037;-49
2023/03/08 09:04:12;;;;;;;14.23;8.55;;;;;;;2.27;48.53;98578.59;5034679;28;20037;-51
2023/03/08 09:06:39;;;;;;;12.88;8.27;;;;;;;2.42;47.40;98582.88;5034000;28;20048;-50
2023/03/08 09:09:05;;;;;;;12.00;7.97;;;;;;;2.49;48.14;98582.44;5034079;28;20053;-51
2023/03/08 09:11:32;;;;;;;16.98;8.65;;;;;;;2.56;46.78;98574.00;5035594;28;20045;-51
2023/03/08 09:13:58;;;;;;;13.35;7.70;;;;;;;2.27;47.92;98557.47;5033508;28;20076;-51
2023/03/08 09:16:27;;;;;;;9.95;6.38;;;;;;;2.31;47.19;98574.78;5033655;28;20037;-48
2023/03/08 09:18:55;;;;;;;12.00;7.38;;;;;;;1.95;48.52;98557.81;5033818;28;20426;-49
2023/03/08 09:21:20;;;;;;;11.18;6.90;;;;;;;1.77;48.34;98530.81;5047925;28;20119;-51
2023/03/08 09:23:46;;;;;;;12.25;6.90;;;;;;;1.90;48.77;98558.09;5054059;28;20037;-50
2023/03/08 09:26:11;;;;;;;8.88;6.30;;;;;;;2.01;48.09;98557.41;5053516;28;20443;-52
2023/03/08 09:28:37;;;;;;;13.93;7.85;;;;;;;1.46;49.02;98485.31;5053660;28;20632;-51
2023/03/08 09:31:10;;;;;;;12.45;7.72;;;;;;;1.90;48.73;98544.91;5053358;28;20036;-54
2023/03/08 09:33:38;;;;;;;11.32;7.90;;;;;;;1.87;49.26;98560.94;5053455;28;20036;-48
2023/03/08 09:36:04;;;;;;;15.02;7.90;;;;;;;1.82;48.86;98553.31;5039209;28;20044;-53
2023/03/08 09:38:29;;;;;;;14.23;7.70;;;;;;;1.85;48.71;98547.84;5032248;28;20108;-50
2023/03/08 09:40:55;;;;;;;11.77;8.45;;;;;;;1.83;48.68;98527.78;5033617;28;20053;-51
2023/03/08 09:43:43;;;;;;;12.50;7.75;;;;;;;1.74;49.09;98475.59;5033239;28;20045;-52
2023/03/08 09:46:12;;;;;;;15.02;9.13;;;;;;;2.22;48.97;98498.84;5047302;28;20044;-49
2023/03/08 09:48:43;;;;;;;14.13;8.75;;;;;;;2.37;48.26;98515.44;5053244;28;20144;-52
2023/03/08 09:51:12;;;;;;;14.50;9.10;;;;;;;2.61;47.80;98491.75;5052707;28;20037;-52
2023/03/08 09:53:45;;;;;;;16.10;9.23;;;;;;;2.96;47.18;98512.25;5053340;28;20064;-53
2023/03/08 09:56:18;;;;;;;15.35;9.45;;;;;;;3.10;46.68;98497.19;5051945;28;20068;-52
2023/03/08 09:58:52;;;;;;;13.70;9.15;;;;;;;2.91;47.02;98479.16;5048574;28;20041;-54
2023/03/08 10:01:33;;;;;;;15.07;9.50;;;;;;;2.95;46.94;98489.41;5033386;28;20041;-52
2023/03/08 10:04:10;;;;;;;11.18;6.53;;;;;;;3.18;47.13;98486.06;5064734;28;20068;-51
2023/03/08 10:07:11;;;;;;;15.77;9.77;;;;;;;2.94;47.27;98498.28;5032644;28;20121;-54
2023/03/08 10:09:46;;;;;;;13.88;9.50;;;;;;;2.94;46.56;98471.84;5033074;28;20378;-52
2023/03/08 10:12:33;;;;;;;13.50;9.55;;;;;;;2.80;47.41;98478.13;5032877;28;20536;-54
2023/03/08 10:15:08;;;;;;;18.27;10.32;;;;;;;2.82;47.21;98448.91;5032118;28;20033;-53
2023/03/08 10:17:43;;;;;;;14.25;10.00;;;;;;;2.71;47.54;98461.09;5032888;28;20029;-54
2023/03/08 10:20:30;;;;;;;14.30;10.02;;;;;;;2.61;48.13;98448.66;5032902;28;20045;-51
2023/03/08 10:23:12;;;;;;;13.57;10.07;;;;;;;2.66;47.43;98451.81;5032651;28;20038;-51
2023/03/08 10:25:38;;;;;;;17.27;10.70;;;;;;;2.58;46.82;98447.06;5032522;28;20056;-47
2023/03/08 10:28:11;;;;;;;17.50;10.48;;;;;;;2.41;47.77;98427.97;5032865;28;20084;-52
2023/03/08 10:30:50;;;;;;;17.05;11.00;;;;;;;2.29;48.13;98429.66;5032770;28;20449;-59
2023/03/08 10:33:19;;;;;;;17.65;11.00;;;;;;;2.25;48.13;98451.91;5032472;28;20483;-51
2023/03/08 10:36:15;;;;;;;20.40;11.55;;;;;;;2.29;49.15;98419.09;5032815;28;20475;-52
2023/03/08 10:38:41;;;;;;;18.15;11.35;;;;;;;2.24;47.58;98420.34;5032284;28;20035;-51
2023/03/08 10:41:15;;;;;;;17.23;9.85;;;;;;;2.24;48.53;98410.63;5031506;28;20368;-52
2023/03/08 10:43:46;;;;;;;19.25;12.18;;;;;;;2.09;48.56;98425.72;5032634;28;20056;-55
2023/03/08 10:46:23;;;;;;;18.17;11.50;;;;;;;2.07;48.80;98409.13;5032486;28;20077;-50
2023/03/08 10:48:50;;;;;;;17.45;11.25;;;;;;;2.04;49.19;98396.16;5032722;28;20053;-56
2023/03/08 10:51:17;;;;;;;19.73;11.10;;;;;;;2.28;47.88;98400.69;5033334;28;20044;-52
2023/03/08 10:53:55;;;;;;;21.80;13.07;;;;;;;2.25;49.30;98412.31;5032017;28;20072;-54
2023/03/08 10:56:26;;;;;;;22.80;13.80;;;;;;;2.31;48.72;98389.09;5032944;28;20037;-52
2023/03/08 10:58:56;;;;;;;21.20;12.93;;;;;;;2.50;47.96;98399.19;5038558;28;20120;-52
2023/03/08 11:01:28;;;;;;;20.98;12.77;;;;;;;2.68;47.89;98387.34;5039088;28;20082;-55
2023/03/08 11:04:05;;;;;;;23.60;12.90;;;;;;;2.61;47.96;98342.94;5038697;28;20041;-52
2023/03/08 11:06:33;;;;;;;20.48;12.82;;;;;;;2.82;47.20;98403.97;5039120;28;20464;-51
2023/03/08 11:09:03;;;;;;;22.65;13.30;;;;;;;2.75;47.26;98395.63;5039198;28;20475;-52
2023/03/08 11:11:40;;;;;;;22.33;13.15;;;;;;;2.86;46.79;98363.16;5038474;28;20025;-52
2023/03/08 11:14:10;;;;;;;21.90;12.93;;;;;;;2.76;47.29;98378.00;5038826;28;20026;-53
2023/03/08 11:16:47;;;;;;;21.15;13.20;;;;;;;2.55;47.49;98387.34;5038877;28;20022;-54
2023/03/08 11:19:12;;;;;;;22.10;12.98;;;;;;;2.48;47.66;98364.13;5039801;28;20183;-51
2023/03/08 11:21:50;;;;;;;23.75;13.07;;;;;;;2.24;47.84;98336.66;5038500;28;20065;-49
2023/03/08 11:24:32;;;;;;;22.23;13.75;;;;;;;2.14;48.48;98346.19;5038600;28;20044;-50
2023/03/08 11:27:42;;;;;;;28.17;13.77;;;;;;;2.29;48.40;98339.84;5037284;28;20086;-54